TimeEDT,TemperatureF,Dew PointF,Humidity,Sea Level PressureIn,VisibilityMPH,Wind Direction,Wind SpeedMPH,Gust SpeedMPH,PrecipitationIn,Events,Conditions,WindDirDegrees,DateUTC
12:54 AM,21.9,19.9,92,29.72,-9999.0,North,-9999.0,-,0.02,,Unknown,0,2013-03-20 04:54:00
1:54 AM,21.9,19.0,89,29.71,-9999.0,North,-9999.0,-,0.01,,Unknown,0,2013-03-20 05:54:00
2:54 AM,21.9,19.0,89,29.69,-9999.0,North,-9999.0,-,0.01,,Unknown,0,2013-03-20 06:54:00
3:54 AM,21.9,19.0,89,29.68,-9999.0,North,-9999.0,-,0.01,,Unknown,0,2013-03-20 07:54:00
4:54 AM,21.0,19.0,92,29.67,-9999.0,North,-9999.0,-,N/A,,Unknown,0,2013-03-20 08:54:00
5:54 AM,21.0,19.0,92,29.67,-9999.0,North,-9999.0,-,N/A,,Unknown,0,2013-03-20 09:54:00
6:54 AM,21.0,19.0,92,29.67,-9999.0,North,-9999.0,-,N/A,,Unknown,0,2013-03-20 10:54:00
7:54 AM,21.9,19.0,89,29.68,-9999.0,North,-9999.0,-,N/A,,Unknown,0,2013-03-20 11:54:00
8:54 AM,23.0,19.9,88,29.68,-9999.0,North,-9999.0,-,N/A,,Unknown,0,2013-03-20 12:54:00
9:54 AM,27.0,21.0,78,29.68,-9999.0,North,-9999.0,-,N/A,,Unknown,0,2013-03-20 13:54:00
10:54 AM,28.0,19.0,69,29.68,-9999.0,North,-9999.0,-,N/A,,Unknown,0,2013-03-20 14:54:00
11:54 AM,28.0,21.0,75,29.68,-9999.0,North,-9999.0,-,0.01,,Unknown,0,2013-03-20 15:54:00
12:54 PM,28.9,19.0,67,29.67,-9999.0,North,-9999.0,-,N/A,,Unknown,0,2013-03-20 16:54:00
1:54 PM,30.0,19.9,66,29.66,-9999.0,North,-9999.0,-,N/A,,Unknown,0,2013-03-20 17:54:00
2:54 PM,32.0,19.9,61,29.64,-9999.0,North,-9999.0,-,N/A,,Unknown,0,2013-03-20 18:54:00
3:54 PM,30.9,23.0,72,29.64,-9999.0,North,-9999.0,-,N/A,,Unknown,0,2013-03-20 19:54:00
4:54 PM,30.0,21.9,72,29.64,-9999.0,North,-9999.0,-,N/A,,Unknown,0,2013-03-20 20:54:00
5:54 PM,30.0,27.0,88,29.65,-9999.0,North,-9999.0,-,0.01,,Unknown,0,2013-03-20 21:54:00
6:54 PM,30.0,23.0,75,29.67,-9999.0,North,-9999.0,-,N/A,,Unknown,0,2013-03-20 22:54:00
7:54 PM,28.9,25.0,85,29.68,-9999.0,North,-9999.0,-,N/A,,Unknown,0,2013-03-20 23:54:00
8:54 PM,28.0,21.0,75,29.70,-9999.0,North,-9999.0,-,N/A,,Unknown,0,2013-03-21 00:54:00
9:54 PM,27.0,21.9,81,29.70,-9999.0,North,-9999.0,-,N/A,,Unknown,0,2013-03-21 01:54:00
10:54 PM,26.1,18.0,71,29.70,-9999.0,North,-9999.0,-,N/A,,Unknown,0,2013-03-21 02:54:00
11:54 PM,24.1,16.0,71,29.70,-9999.0,North,-9999.0,-,N/A,,Unknown,0,2013-03-21 03:54:00